sensor_id;sensor_type;location;lat;lon;timestamp;P1;durP1;ratioP1;P2;durP2;ratioP2
8187;SDS011;4135;49.184;9.722;2022-07-29T00:01:31;4.88;;;3.88;;
8187;SDS011;4135;49.184;9.722;2022-07-29T00:04:00;5.53;;;4.05;;
8187;SDS011;4135;49.184;9.722;2022-07-29T00:06:30;5.78;;;4.43;;
8187;SDS011;4135;49.184;9.722;2022-07-29T00:08:59;7.72;;;4.38;;
8187;SDS011;4135;49.184;9.722;2022-07-29T00:11:29;7.53;;;4.50;;
8187;SDS011;4135;49.184;9.722;2022-07-29T00:13:58;6.50;;;4.35;;
8187;SDS011;4135;49.184;9.722;2022-07-29T00:16:28;4.30;;;4.00;;
8187;SDS011;4135;49.184;9.722;2022-07-29T00:18:57;6.88;;;4.25;;
8187;SDS011;4135;49.184;9.722;2022-07-29T00:21:27;5.97;;;4.60;;
8187;SDS011;4135;49.184;9.722;2022-07-29T00:23:56;5.97;;;3.88;;
8187;SDS011;4135;49.184;9.722;2022-07-29T00:26:26;5.68;;;3.92;;
8187;SDS011;4135;49.184;9.722;2022-07-29T00:29:00;5.28;;;3.95;;
8187;SDS011;4135;49.184;9.722;2022-07-29T00:31:31;3.60;;;3.40;;
8187;SDS011;4135;49.184;9.722;2022-07-29T00:34:01;5.65;;;3.88;;
8187;SDS011;4135;49.184;9.722;2022-07-29T00:36:31;7.15;;;4.38;;
8187;SDS011;4135;49.184;9.722;2022-07-29T00:39:00;5.40;;;3.80;;
8187;SDS011;4135;49.184;9.722;2022-07-29T00:41:30;6.20;;;4.15;;
8187;SDS011;4135;49.184;9.722;2022-07-29T00:43:59;7.00;;;3.50;;
8187;SDS011;4135;49.184;9.722;2022-07-29T00:46:29;4.28;;;3.72;;
8187;SDS011;4135;49.184;9.722;2022-07-29T00:48:58;7.57;;;4.35;;
8187;SDS011;4135;49.184;9.722;2022-07-29T00:51:28;6.05;;;3.63;;
8187;SDS011;4135;49.184;9.722;2022-07-29T00:53:58;6.22;;;3.97;;
8187;SDS011;4135;49.184;9.722;2022-07-29T00:56:29;6.55;;;4.15;;
8187;SDS011;4135;49.184;9.722;2022-07-29T00:59:00;3.80;;;3.33;;
8187;SDS011;4135;49.184;9.722;2022-07-29T01:01:30;4.28;;;3.70;;
8187;SDS011;4135;49.184;9.722;2022-07-29T01:03:59;5.18;;;4.30;;
8187;SDS011;4135;49.184;9.722;2022-07-29T01:06:29;5.97;;;3.90;;
8187;SDS011;4135;49.184;9.722;2022-07-29T01:08:58;6.65;;;4.00;;
8187;SDS011;4135;49.184;9.722;2022-07-29T01:11:29;5.13;;;4.00;;
8187;SDS011;4135;49.184;9.722;2022-07-29T01:13:58;8.98;;;3.88;;
8187;SDS011;4135;49.184;9.722;2022-07-29T01:16:31;4.75;;;4.20;;
8187;SDS011;4135;49.184;9.722;2022-07-29T01:19:12;10.15;;;4.13;;
8187;SDS011;4135;49.184;9.722;2022-07-29T01:21:57;6.22;;;4.13;;
8187;SDS011;4135;49.184;9.722;2022-07-29T01:27:32;9.80;;;4.53;;
8187;SDS011;4135;49.184;9.722;2022-07-29T01:30:25;7.10;;;4.65;;
8187;SDS011;4135;49.184;9.722;2022-07-29T01:33:01;7.75;;;4.18;;
8187;SDS011;4135;49.184;9.722;2022-07-29T01:35:38;4.30;;;3.97;;
8187;SDS011;4135;49.184;9.722;2022-07-29T01:38:22;8.32;;;4.57;;
8187;SDS011;4135;49.184;9.722;2022-07-29T01:41:02;6.72;;;3.97;;
8187;SDS011;4135;49.184;9.722;2022-07-29T01:43:38;7.28;;;4.70;;
8187;SDS011;4135;49.184;9.722;2022-07-29T01:46:13;4.82;;;3.67;;
8187;SDS011;4135;49.184;9.722;2022-07-29T01:48:50;5.03;;;3.63;;
8187;SDS011;4135;49.184;9.722;2022-07-29T01:51:31;9.43;;;4.15;;
8187;SDS011;4135;49.184;9.722;2022-07-29T01:56:48;5.45;;;4.03;;
8187;SDS011;4135;49.184;9.722;2022-07-29T01:59:22;3.92;;;3.30;;
8187;SDS011;4135;49.184;9.722;2022-07-29T02:01:54;6.88;;;4.25;;
8187;SDS011;4135;49.184;9.722;2022-07-29T02:04:26;8.52;;;4.57;;
8187;SDS011;4135;49.184;9.722;2022-07-29T02:07:00;8.77;;;4.65;;
8187;SDS011;4135;49.184;9.722;2022-07-29T02:09:33;6.20;;;4.25;;
8187;SDS011;4135;49.184;9.722;2022-07-29T02:12:04;6.28;;;4.32;;
8187;SDS011;4135;49.184;9.722;2022-07-29T02:14:37;6.75;;;4.28;;
8187;SDS011;4135;49.184;9.722;2022-07-29T02:17:12;7.35;;;4.45;;
8187;SDS011;4135;49.184;9.722;2022-07-29T02:19:44;4.35;;;3.70;;
8187;SDS011;4135;49.184;9.722;2022-07-29T02:22:14;5.90;;;4.43;;
8187;SDS011;4135;49.184;9.722;2022-07-29T02:24:47;9.07;;;3.75;;
8187;SDS011;4135;49.184;9.722;2022-07-29T02:27:20;6.72;;;4.70;;
8187;SDS011;4135;49.184;9.722;2022-07-29T02:29:52;11.65;;;4.57;;
8187;SDS011;4135;49.184;9.722;2022-07-29T02:32:24;6.97;;;4.28;;
8187;SDS011;4135;49.184;9.722;2022-07-29T02:34:56;6.97;;;4.32;;
8187;SDS011;4135;49.184;9.722;2022-07-29T02:37:28;6.93;;;3.60;;
8187;SDS011;4135;49.184;9.722;2022-07-29T02:39:59;10.00;;;4.60;;
8187;SDS011;4135;49.184;9.722;2022-07-29T02:42:29;7.88;;;5.00;;
8187;SDS011;4135;49.184;9.722;2022-07-29T02:45:01;6.18;;;3.80;;
8187;SDS011;4135;49.184;9.722;2022-07-29T02:47:33;6.05;;;4.18;;
8187;SDS011;4135;49.184;9.722;2022-07-29T02:50:06;6.15;;;4.03;;
8187;SDS011;4135;49.184;9.722;2022-07-29T02:52:39;7.18;;;4.57;;
8187;SDS011;4135;49.184;9.722;2022-07-29T02:55:25;8.13;;;5.50;;
8187;SDS011;4135;49.184;9.722;2022-07-29T02:58:01;8.38;;;5.93;;
8187;SDS011;4135;49.184;9.722;2022-07-29T03:00:35;7.53;;;5.90;;
8187;SDS011;4135;49.184;9.722;2022-07-29T03:03:07;10.05;;;6.22;;
8187;SDS011;4135;49.184;9.722;2022-07-29T03:05:41;12.85;;;5.80;;
8187;SDS011;4135;49.184;9.722;2022-07-29T03:08:11;7.85;;;5.40;;
8187;SDS011;4135;49.184;9.722;2022-07-29T03:10:43;5.60;;;4.65;;
8187;SDS011;4135;49.184;9.722;2022-07-29T03:13:14;9.55;;;5.20;;
8187;SDS011;4135;49.184;9.722;2022-07-29T03:15:45;8.75;;;4.75;;
8187;SDS011;4135;49.184;9.722;2022-07-29T03:18:15;4.13;;;3.90;;
8187;SDS011;4135;49.184;9.722;2022-07-29T03:20:44;11.65;;;4.85;;
8187;SDS011;4135;49.184;9.722;2022-07-29T03:23:18;8.35;;;5.25;;
8187;SDS011;4135;49.184;9.722;2022-07-29T03:25:49;9.52;;;5.53;;
8187;SDS011;4135;49.184;9.722;2022-07-29T03:28:19;6.70;;;4.75;;
8187;SDS011;4135;49.184;9.722;2022-07-29T03:30:49;8.00;;;4.95;;
8187;SDS011;4135;49.184;9.722;2022-07-29T03:33:18;8.48;;;5.05;;
8187;SDS011;4135;49.184;9.722;2022-07-29T03:35:48;9.25;;;5.70;;
8187;SDS011;4135;49.184;9.722;2022-07-29T03:38:17;9.35;;;5.72;;
8187;SDS011;4135;49.184;9.722;2022-07-29T03:40:54;6.88;;;4.93;;
8187;SDS011;4135;49.184;9.722;2022-07-29T03:43:30;8.85;;;4.45;;
8187;SDS011;4135;49.184;9.722;2022-07-29T03:46:03;6.38;;;4.90;;
8187;SDS011;4135;49.184;9.722;2022-07-29T03:48:36;11.52;;;5.78;;
8187;SDS011;4135;49.184;9.722;2022-07-29T03:51:10;7.38;;;5.25;;
8187;SDS011;4135;49.184;9.722;2022-07-29T03:53:40;5.28;;;4.32;;
8187;SDS011;4135;49.184;9.722;2022-07-29T03:56:10;9.13;;;5.35;;
8187;SDS011;4135;49.184;9.722;2022-07-29T03:58:45;7.75;;;5.13;;
8187;SDS011;4135;49.184;9.722;2022-07-29T04:01:16;7.18;;;5.05;;
8187;SDS011;4135;49.184;9.722;2022-07-29T04:03:46;5.55;;;4.50;;
8187;SDS011;4135;49.184;9.722;2022-07-29T04:06:16;12.65;;;4.43;;
8187;SDS011;4135;49.184;9.722;2022-07-29T04:08:45;6.20;;;4.45;;
8187;SDS011;4135;49.184;9.722;2022-07-29T04:11:15;9.77;;;4.70;;
8187;SDS011;4135;49.184;9.722;2022-07-29T04:13:44;6.35;;;4.57;;
8187;SDS011;4135;49.184;9.722;2022-07-29T04:16:14;9.75;;;5.13;;
8187;SDS011;4135;49.184;9.722;2022-07-29T04:18:43;7.82;;;4.90;;
8187;SDS011;4135;49.184;9.722;2022-07-29T04:21:13;9.68;;;4.90;;
8187;SDS011;4135;49.184;9.722;2022-07-29T04:23:43;10.80;;;4.28;;
8187;SDS011;4135;49.184;9.722;2022-07-29T04:26:14;15.82;;;6.05;;
8187;SDS011;4135;49.184;9.722;2022-07-29T04:28:43;7.43;;;5.15;;
8187;SDS011;4135;49.184;9.722;2022-07-29T04:31:14;11.45;;;6.03;;
8187;SDS011;4135;49.184;9.722;2022-07-29T04:33:44;8.02;;;6.10;;
8187;SDS011;4135;49.184;9.722;2022-07-29T04:36:13;6.30;;;5.18;;
8187;SDS011;4135;49.184;9.722;2022-07-29T04:38:44;7.82;;;5.18;;
8187;SDS011;4135;49.184;9.722;2022-07-29T04:41:13;8.18;;;5.20;;
8187;SDS011;4135;49.184;9.722;2022-07-29T04:43:43;7.55;;;5.53;;
8187;SDS011;4135;49.184;9.722;2022-07-29T04:46:12;6.97;;;4.50;;
8187;SDS011;4135;49.184;9.722;2022-07-29T04:48:42;6.75;;;4.70;;
8187;SDS011;4135;49.184;9.722;2022-07-29T04:51:14;9.23;;;5.80;;
8187;SDS011;4135;49.184;9.722;2022-07-29T04:53:44;10.05;;;5.45;;
8187;SDS011;4135;49.184;9.722;2022-07-29T04:56:14;6.97;;;4.97;;
8187;SDS011;4135;49.184;9.722;2022-07-29T04:58:44;8.23;;;4.95;;
8187;SDS011;4135;49.184;9.722;2022-07-29T05:01:13;9.98;;;4.72;;
8187;SDS011;4135;49.184;9.722;2022-07-29T05:03:43;9.02;;;4.75;;
8187;SDS011;4135;49.184;9.722;2022-07-29T05:06:14;8.50;;;4.80;;
8187;SDS011;4135;49.184;9.722;2022-07-29T05:08:43;6.00;;;4.93;;
8187;SDS011;4135;49.184;9.722;2022-07-29T05:11:13;8.50;;;4.15;;
8187;SDS011;4135;49.184;9.722;2022-07-29T05:13:42;9.23;;;4.70;;
8187;SDS011;4135;49.184;9.722;2022-07-29T05:16:12;9.38;;;5.38;;
8187;SDS011;4135;49.184;9.722;2022-07-29T05:18:42;8.52;;;4.40;;
8187;SDS011;4135;49.184;9.722;2022-07-29T05:21:11;5.90;;;4.50;;
8187;SDS011;4135;49.184;9.722;2022-07-29T05:23:41;21.98;;;5.00;;
8187;SDS011;4135;49.184;9.722;2022-07-29T05:26:10;5.53;;;5.28;;
8187;SDS011;4135;49.184;9.722;2022-07-29T05:28:40;7.60;;;5.50;;
8187;SDS011;4135;49.184;9.722;2022-07-29T05:31:10;6.88;;;5.38;;
8187;SDS011;4135;49.184;9.722;2022-07-29T05:33:40;6.80;;;5.03;;
8187;SDS011;4135;49.184;9.722;2022-07-29T05:36:10;9.93;;;6.90;;
8187;SDS011;4135;49.184;9.722;2022-07-29T05:38:40;10.02;;;6.32;;
8187;SDS011;4135;49.184;9.722;2022-07-29T05:41:10;8.43;;;5.60;;
8187;SDS011;4135;49.184;9.722;2022-07-29T05:43:39;7.20;;;5.68;;
8187;SDS011;4135;49.184;9.722;2022-07-29T05:46:09;9.65;;;6.43;;
8187;SDS011;4135;49.184;9.722;2022-07-29T05:48:38;15.10;;;6.88;;
8187;SDS011;4135;49.184;9.722;2022-07-29T05:51:08;8.00;;;6.40;;
8187;SDS011;4135;49.184;9.722;2022-07-29T05:53:37;10.13;;;6.20;;
8187;SDS011;4135;49.184;9.722;2022-07-29T05:56:07;8.80;;;5.90;;
8187;SDS011;4135;49.184;9.722;2022-07-29T05:58:36;8.55;;;6.05;;
8187;SDS011;4135;49.184;9.722;2022-07-29T06:01:06;9.38;;;6.13;;
8187;SDS011;4135;49.184;9.722;2022-07-29T06:03:36;14.80;;;6.50;;
8187;SDS011;4135;49.184;9.722;2022-07-29T06:06:07;11.35;;;6.57;;
8187;SDS011;4135;49.184;9.722;2022-07-29T06:08:42;9.70;;;6.65;;
8187;SDS011;4135;49.184;9.722;2022-07-29T06:11:12;9.48;;;6.35;;
8187;SDS011;4135;49.184;9.722;2022-07-29T06:13:41;7.82;;;6.32;;
8187;SDS011;4135;49.184;9.722;2022-07-29T06:16:11;8.65;;;6.40;;
8187;SDS011;4135;49.184;9.722;2022-07-29T06:18:40;14.00;;;7.10;;
8187;SDS011;4135;49.184;9.722;2022-07-29T06:21:10;9.40;;;6.28;;
8187;SDS011;4135;49.184;9.722;2022-07-29T06:23:40;8.50;;;5.85;;
8187;SDS011;4135;49.184;9.722;2022-07-29T06:26:09;16.70;;;6.38;;
8187;SDS011;4135;49.184;9.722;2022-07-29T06:28:39;13.32;;;6.63;;
8187;SDS011;4135;49.184;9.722;2022-07-29T06:31:08;10.82;;;5.85;;
8187;SDS011;4135;49.184;9.722;2022-07-29T06:33:38;9.45;;;5.57;;
8187;SDS011;4135;49.184;9.722;2022-07-29T06:36:08;8.60;;;6.00;;
8187;SDS011;4135;49.184;9.722;2022-07-29T06:38:37;11.25;;;4.72;;
8187;SDS011;4135;49.184;9.722;2022-07-29T06:41:07;8.63;;;5.03;;
8187;SDS011;4135;49.184;9.722;2022-07-29T06:43:41;10.48;;;5.10;;
8187;SDS011;4135;49.184;9.722;2022-07-29T06:46:13;7.80;;;5.10;;
8187;SDS011;4135;49.184;9.722;2022-07-29T06:48:44;7.00;;;4.82;;
8187;SDS011;4135;49.184;9.722;2022-07-29T06:51:14;10.52;;;5.07;;
8187;SDS011;4135;49.184;9.722;2022-07-29T06:53:45;9.48;;;4.90;;
8187;SDS011;4135;49.184;9.722;2022-07-29T06:56:14;7.22;;;4.72;;
8187;SDS011;4135;49.184;9.722;2022-07-29T06:58:44;6.45;;;4.93;;
8187;SDS011;4135;49.184;9.722;2022-07-29T07:01:13;13.40;;;4.85;;
8187;SDS011;4135;49.184;9.722;2022-07-29T07:03:43;6.93;;;4.28;;
8187;SDS011;4135;49.184;9.722;2022-07-29T07:06:12;9.32;;;4.53;;
8187;SDS011;4135;49.184;9.722;2022-07-29T07:08:42;5.95;;;4.68;;
8187;SDS011;4135;49.184;9.722;2022-07-29T07:11:11;7.93;;;4.10;;
8187;SDS011;4135;49.184;9.722;2022-07-29T07:13:41;7.35;;;4.75;;
8187;SDS011;4135;49.184;9.722;2022-07-29T07:16:10;6.00;;;4.15;;
8187;SDS011;4135;49.184;9.722;2022-07-29T07:18:40;6.97;;;4.57;;
8187;SDS011;4135;49.184;9.722;2022-07-29T07:21:09;5.85;;;3.90;;
8187;SDS011;4135;49.184;9.722;2022-07-29T07:23:39;5.93;;;4.28;;
8187;SDS011;4135;49.184;9.722;2022-07-29T07:26:09;5.20;;;4.00;;
8187;SDS011;4135;49.184;9.722;2022-07-29T07:28:39;6.45;;;4.28;;
8187;SDS011;4135;49.184;9.722;2022-07-29T07:31:09;5.72;;;3.53;;
8187;SDS011;4135;49.184;9.722;2022-07-29T07:33:39;9.15;;;4.05;;
8187;SDS011;4135;49.184;9.722;2022-07-29T07:36:09;6.70;;;3.92;;
8187;SDS011;4135;49.184;9.722;2022-07-29T07:38:38;7.43;;;3.65;;
8187;SDS011;4135;49.184;9.722;2022-07-29T07:41:08;5.95;;;3.80;;
8187;SDS011;4135;49.184;9.722;2022-07-29T07:43:37;8.15;;;4.97;;
8187;SDS011;4135;49.184;9.722;2022-07-29T07:46:07;6.90;;;3.92;;
8187;SDS011;4135;49.184;9.722;2022-07-29T07:48:36;5.82;;;3.78;;
8187;SDS011;4135;49.184;9.722;2022-07-29T07:51:06;4.90;;;3.75;;
8187;SDS011;4135;49.184;9.722;2022-07-29T07:53:36;10.32;;;4.70;;
8187;SDS011;4135;49.184;9.722;2022-07-29T07:56:05;5.57;;;4.75;;
8187;SDS011;4135;49.184;9.722;2022-07-29T07:58:35;7.65;;;5.13;;
8187;SDS011;4135;49.184;9.722;2022-07-29T08:01:05;7.45;;;4.07;;
8187;SDS011;4135;49.184;9.722;2022-07-29T08:03:35;5.68;;;4.68;;
8187;SDS011;4135;49.184;9.722;2022-07-29T08:06:05;6.35;;;4.45;;
8187;SDS011;4135;49.184;9.722;2022-07-29T08:08:34;8.30;;;4.32;;
8187;SDS011;4135;49.184;9.722;2022-07-29T08:11:04;4.53;;;3.65;;
8187;SDS011;4135;49.184;9.722;2022-07-29T08:13:35;4.97;;;4.25;;
8187;SDS011;4135;49.184;9.722;2022-07-29T08:16:06;4.32;;;3.50;;
8187;SDS011;4135;49.184;9.722;2022-07-29T08:18:44;5.05;;;3.78;;
8187;SDS011;4135;49.184;9.722;2022-07-29T08:21:14;4.95;;;3.42;;
8187;SDS011;4135;49.184;9.722;2022-07-29T08:23:44;5.20;;;3.78;;
8187;SDS011;4135;49.184;9.722;2022-07-29T08:26:43;5.93;;;3.97;;
8187;SDS011;4135;49.184;9.722;2022-07-29T08:29:12;4.80;;;3.38;;
8187;SDS011;4135;49.184;9.722;2022-07-29T08:31:42;4.70;;;3.50;;
8187;SDS011;4135;49.184;9.722;2022-07-29T08:34:12;3.38;;;3.08;;
8187;SDS011;4135;49.184;9.722;2022-07-29T08:36:41;8.90;;;3.47;;
8187;SDS011;4135;49.184;9.722;2022-07-29T08:39:11;6.32;;;3.65;;
8187;SDS011;4135;49.184;9.722;2022-07-29T08:41:40;8.45;;;3.30;;
8187;SDS011;4135;49.184;9.722;2022-07-29T08:44:10;8.35;;;3.97;;
8187;SDS011;4135;49.184;9.722;2022-07-29T08:46:39;6.07;;;3.05;;
8187;SDS011;4135;49.184;9.722;2022-07-29T08:49:09;4.65;;;3.08;;
8187;SDS011;4135;49.184;9.722;2022-07-29T08:51:39;8.52;;;3.22;;
8187;SDS011;4135;49.184;9.722;2022-07-29T08:54:10;7.53;;;3.83;;
8187;SDS011;4135;49.184;9.722;2022-07-29T08:56:40;9.02;;;3.55;;
8187;SDS011;4135;49.184;9.722;2022-07-29T08:59:10;7.30;;;3.53;;
8187;SDS011;4135;49.184;9.722;2022-07-29T09:01:41;11.48;;;3.25;;
8187;SDS011;4135;49.184;9.722;2022-07-29T09:04:13;9.68;;;4.05;;
8187;SDS011;4135;49.184;9.722;2022-07-29T09:06:45;5.70;;;3.50;;
8187;SDS011;4135;49.184;9.722;2022-07-29T09:09:18;5.22;;;4.05;;
8187;SDS011;4135;49.184;9.722;2022-07-29T09:11:47;6.50;;;3.53;;
8187;SDS011;4135;49.184;9.722;2022-07-29T09:14:17;7.65;;;3.65;;
8187;SDS011;4135;49.184;9.722;2022-07-29T09:16:51;7.40;;;3.92;;
8187;SDS011;4135;49.184;9.722;2022-07-29T09:19:26;5.60;;;3.92;;
8187;SDS011;4135;49.184;9.722;2022-07-29T09:21:57;8.13;;;3.67;;
8187;SDS011;4135;49.184;9.722;2022-07-29T09:27:08;5.40;;;3.22;;
8187;SDS011;4135;49.184;9.722;2022-07-29T09:29:39;4.70;;;3.67;;
8187;SDS011;4135;49.184;9.722;2022-07-29T09:32:09;10.52;;;4.20;;
8187;SDS011;4135;49.184;9.722;2022-07-29T09:34:39;6.03;;;3.20;;
8187;SDS011;4135;49.184;9.722;2022-07-29T09:37:09;4.93;;;3.53;;
8187;SDS011;4135;49.184;9.722;2022-07-29T09:39:39;3.95;;;3.10;;
8187;SDS011;4135;49.184;9.722;2022-07-29T09:42:14;8.10;;;3.13;;
8187;SDS011;4135;49.184;9.722;2022-07-29T09:44:57;5.45;;;2.97;;
8187;SDS011;4135;49.184;9.722;2022-07-29T09:47:39;4.78;;;3.05;;
8187;SDS011;4135;49.184;9.722;2022-07-29T09:50:10;7.70;;;3.13;;
8187;SDS011;4135;49.184;9.722;2022-07-29T09:52:50;3.42;;;2.65;;
8187;SDS011;4135;49.184;9.722;2022-07-29T09:55:20;4.13;;;3.10;;
8187;SDS011;4135;49.184;9.722;2022-07-29T09:57:50;4.22;;;3.25;;
8187;SDS011;4135;49.184;9.722;2022-07-29T10:00:19;8.13;;;3.42;;
8187;SDS011;4135;49.184;9.722;2022-07-29T10:02:51;5.82;;;3.40;;
8187;SDS011;4135;49.184;9.722;2022-07-29T10:05:29;6.15;;;2.50;;
8187;SDS011;4135;49.184;9.722;2022-07-29T10:07:59;4.53;;;2.90;;
8187;SDS011;4135;49.184;9.722;2022-07-29T10:13:06;5.05;;;3.03;;
8187;SDS011;4135;49.184;9.722;2022-07-29T10:15:39;3.40;;;2.70;;
8187;SDS011;4135;49.184;9.722;2022-07-29T10:18:13;6.15;;;2.97;;
8187;SDS011;4135;49.184;9.722;2022-07-29T10:20:46;4.55;;;2.90;;
8187;SDS011;4135;49.184;9.722;2022-07-29T10:23:15;4.50;;;2.95;;
8187;SDS011;4135;49.184;9.722;2022-07-29T10:25:45;3.78;;;2.88;;
8187;SDS011;4135;49.184;9.722;2022-07-29T10:28:15;3.38;;;2.92;;
8187;SDS011;4135;49.184;9.722;2022-07-29T10:30:44;4.18;;;2.95;;
8187;SDS011;4135;49.184;9.722;2022-07-29T10:33:27;4.05;;;2.75;;
8187;SDS011;4135;49.184;9.722;2022-07-29T10:38:44;3.97;;;2.60;;
8187;SDS011;4135;49.184;9.722;2022-07-29T10:46:51;4.05;;;2.97;;
8187;SDS011;4135;49.184;9.722;2022-07-29T10:49:22;3.78;;;2.90;;
8187;SDS011;4135;49.184;9.722;2022-07-29T10:57:22;6.25;;;3.20;;
8187;SDS011;4135;49.184;9.722;2022-07-29T11:05:14;3.95;;;2.97;;
8187;SDS011;4135;49.184;9.722;2022-07-29T11:10:41;2.95;;;2.75;;
8187;SDS011;4135;49.184;9.722;2022-07-29T11:13:11;15.60;;;6.82;;
8187;SDS011;4135;49.184;9.722;2022-07-29T11:15:53;10.23;;;4.60;;
8187;SDS011;4135;49.184;9.722;2022-07-29T11:18:24;7.03;;;3.42;;
8187;SDS011;4135;49.184;9.722;2022-07-29T11:20:53;10.13;;;3.85;;
8187;SDS011;4135;49.184;9.722;2022-07-29T11:34:15;5.50;;;3.65;;
8187;SDS011;4135;49.184;9.722;2022-07-29T11:39:46;7.75;;;5.28;;
8187;SDS011;4135;49.184;9.722;2022-07-29T11:47:55;7.32;;;4.50;;
8187;SDS011;4135;49.184;9.722;2022-07-29T11:50:34;10.65;;;4.53;;
8187;SDS011;4135;49.184;9.722;2022-07-29T11:53:10;6.40;;;3.63;;
8187;SDS011;4135;49.184;9.722;2022-07-29T11:55:41;8.45;;;4.53;;
8187;SDS011;4135;49.184;9.722;2022-07-29T11:58:11;6.68;;;4.30;;
8187;SDS011;4135;49.184;9.722;2022-07-29T12:00:41;6.07;;;3.88;;
8187;SDS011;4135;49.184;9.722;2022-07-29T12:03:11;8.23;;;4.68;;
8187;SDS011;4135;49.184;9.722;2022-07-29T12:05:43;6.45;;;4.38;;
8187;SDS011;4135;49.184;9.722;2022-07-29T12:08:15;7.13;;;4.50;;
8187;SDS011;4135;49.184;9.722;2022-07-29T12:10:51;10.77;;;4.55;;
8187;SDS011;4135;49.184;9.722;2022-07-29T12:13:21;5.63;;;4.03;;
8187;SDS011;4135;49.184;9.722;2022-07-29T12:15:54;9.40;;;3.90;;
8187;SDS011;4135;49.184;9.722;2022-07-29T12:18:26;6.45;;;3.88;;
8187;SDS011;4135;49.184;9.722;2022-07-29T12:20:56;6.90;;;3.67;;
8187;SDS011;4135;49.184;9.722;2022-07-29T12:23:27;6.13;;;4.00;;
8187;SDS011;4135;49.184;9.722;2022-07-29T12:25:57;7.13;;;4.15;;
8187;SDS011;4135;49.184;9.722;2022-07-29T12:28:27;3.78;;;3.63;;
8187;SDS011;4135;49.184;9.722;2022-07-29T12:30:57;6.13;;;3.78;;
8187;SDS011;4135;49.184;9.722;2022-07-29T12:33:28;4.60;;;3.45;;
8187;SDS011;4135;49.184;9.722;2022-07-29T12:36:02;4.43;;;3.72;;
8187;SDS011;4135;49.184;9.722;2022-07-29T12:38:32;4.18;;;3.47;;
8187;SDS011;4135;49.184;9.722;2022-07-29T12:41:05;4.95;;;4.20;;
8187;SDS011;4135;49.184;9.722;2022-07-29T12:43:35;6.38;;;4.15;;
8187;SDS011;4135;49.184;9.722;2022-07-29T12:46:12;5.10;;;4.00;;
8187;SDS011;4135;49.184;9.722;2022-07-29T12:48:43;5.90;;;4.07;;
8187;SDS011;4135;49.184;9.722;2022-07-29T12:51:13;4.78;;;3.90;;
8187;SDS011;4135;49.184;9.722;2022-07-29T12:54:01;5.47;;;3.60;;
8187;SDS011;4135;49.184;9.722;2022-07-29T12:56:32;3.20;;;3.03;;
8187;SDS011;4135;49.184;9.722;2022-07-29T12:59:16;8.38;;;3.50;;
8187;SDS011;4135;49.184;9.722;2022-07-29T13:01:48;3.78;;;3.58;;
8187;SDS011;4135;49.184;9.722;2022-07-29T13:04:28;7.82;;;4.05;;
8187;SDS011;4135;49.184;9.722;2022-07-29T13:07:00;10.00;;;4.53;;
8187;SDS011;4135;49.184;9.722;2022-07-29T13:09:44;6.50;;;3.83;;
8187;SDS011;4135;49.184;9.722;2022-07-29T13:12:14;4.78;;;3.35;;
8187;SDS011;4135;49.184;9.722;2022-07-29T13:14:45;5.97;;;3.83;;
8187;SDS011;4135;49.184;9.722;2022-07-29T13:17:19;5.72;;;3.88;;
8187;SDS011;4135;49.184;9.722;2022-07-29T13:19:53;5.30;;;3.63;;
8187;SDS011;4135;49.184;9.722;2022-07-29T13:22:34;5.25;;;3.75;;
8187;SDS011;4135;49.184;9.722;2022-07-29T13:25:04;7.55;;;4.15;;
8187;SDS011;4135;49.184;9.722;2022-07-29T13:27:38;5.10;;;3.60;;
8187;SDS011;4135;49.184;9.722;2022-07-29T13:30:08;4.80;;;3.95;;
8187;SDS011;4135;49.184;9.722;2022-07-29T13:32:38;8.68;;;3.65;;
8187;SDS011;4135;49.184;9.722;2022-07-29T13:35:08;6.90;;;4.10;;
8187;SDS011;4135;49.184;9.722;2022-07-29T13:37:38;4.47;;;3.90;;
8187;SDS011;4135;49.184;9.722;2022-07-29T13:40:08;4.82;;;3.85;;
8187;SDS011;4135;49.184;9.722;2022-07-29T13:42:39;4.93;;;3.83;;
8187;SDS011;4135;49.184;9.722;2022-07-29T13:45:10;5.60;;;3.80;;
8187;SDS011;4135;49.184;9.722;2022-07-29T13:47:39;5.90;;;4.00;;
8187;SDS011;4135;49.184;9.722;2022-07-29T13:50:09;3.85;;;3.17;;
8187;SDS011;4135;49.184;9.722;2022-07-29T13:52:39;6.38;;;3.75;;
8187;SDS011;4135;49.184;9.722;2022-07-29T13:55:08;5.40;;;4.10;;
8187;SDS011;4135;49.184;9.722;2022-07-29T13:57:38;6.53;;;3.92;;
8187;SDS011;4135;49.184;9.722;2022-07-29T14:00:08;3.97;;;3.83;;
8187;SDS011;4135;49.184;9.722;2022-07-29T14:02:38;6.15;;;3.40;;
8187;SDS011;4135;49.184;9.722;2022-07-29T14:05:08;4.80;;;3.33;;
8187;SDS011;4135;49.184;9.722;2022-07-29T14:07:38;4.50;;;3.78;;
8187;SDS011;4135;49.184;9.722;2022-07-29T14:10:08;5.43;;;3.60;;
8187;SDS011;4135;49.184;9.722;2022-07-29T14:12:38;5.47;;;4.22;;
8187;SDS011;4135;49.184;9.722;2022-07-29T14:15:08;7.13;;;4.07;;
8187;SDS011;4135;49.184;9.722;2022-07-29T14:17:37;6.35;;;4.45;;
8187;SDS011;4135;49.184;9.722;2022-07-29T14:20:07;4.80;;;3.67;;
8187;SDS011;4135;49.184;9.722;2022-07-29T14:22:37;4.82;;;3.88;;
8187;SDS011;4135;49.184;9.722;2022-07-29T14:25:06;5.43;;;4.47;;
8187;SDS011;4135;49.184;9.722;2022-07-29T14:27:37;4.65;;;3.97;;
8187;SDS011;4135;49.184;9.722;2022-07-29T14:30:06;6.05;;;4.15;;
8187;SDS011;4135;49.184;9.722;2022-07-29T14:32:36;7.40;;;4.50;;
8187;SDS011;4135;49.184;9.722;2022-07-29T14:35:06;6.43;;;3.70;;
8187;SDS011;4135;49.184;9.722;2022-07-29T14:37:36;7.68;;;4.28;;
8187;SDS011;4135;49.184;9.722;2022-07-29T14:40:07;4.97;;;4.25;;
8187;SDS011;4135;49.184;9.722;2022-07-29T14:42:38;5.75;;;4.38;;
8187;SDS011;4135;49.184;9.722;2022-07-29T14:45:08;4.35;;;3.65;;
8187;SDS011;4135;49.184;9.722;2022-07-29T14:47:38;4.70;;;3.92;;
8187;SDS011;4135;49.184;9.722;2022-07-29T14:50:08;6.78;;;3.78;;
8187;SDS011;4135;49.184;9.722;2022-07-29T14:52:39;4.43;;;3.50;;
8187;SDS011;4135;49.184;9.722;2022-07-29T14:55:08;3.72;;;3.53;;
8187;SDS011;4135;49.184;9.722;2022-07-29T14:57:38;5.35;;;3.50;;
8187;SDS011;4135;49.184;9.722;2022-07-29T15:00:08;4.03;;;3.67;;
8187;SDS011;4135;49.184;9.722;2022-07-29T15:02:38;3.55;;;3.38;;
8187;SDS011;4135;49.184;9.722;2022-07-29T15:05:08;5.50;;;3.60;;
8187;SDS011;4135;49.184;9.722;2022-07-29T15:07:37;5.32;;;3.58;;
8187;SDS011;4135;49.184;9.722;2022-07-29T15:10:07;5.43;;;3.78;;
8187;SDS011;4135;49.184;9.722;2022-07-29T15:12:36;4.95;;;3.75;;
8187;SDS011;4135;49.184;9.722;2022-07-29T15:15:06;4.47;;;3.53;;
8187;SDS011;4135;49.184;9.722;2022-07-29T15:17:36;5.28;;;3.00;;
8187;SDS011;4135;49.184;9.722;2022-07-29T15:20:06;6.40;;;2.97;;
8187;SDS011;4135;49.184;9.722;2022-07-29T15:22:35;2.50;;;2.33;;
8187;SDS011;4135;49.184;9.722;2022-07-29T15:25:07;3.90;;;3.15;;
8187;SDS011;4135;49.184;9.722;2022-07-29T15:27:36;3.67;;;2.90;;
8187;SDS011;4135;49.184;9.722;2022-07-29T15:30:06;5.05;;;3.08;;
8187;SDS011;4135;49.184;9.722;2022-07-29T15:32:36;5.18;;;2.90;;
8187;SDS011;4135;49.184;9.722;2022-07-29T15:35:06;4.07;;;3.20;;
8187;SDS011;4135;49.184;9.722;2022-07-29T15:37:37;7.47;;;3.45;;
8187;SDS011;4135;49.184;9.722;2022-07-29T15:40:07;4.85;;;3.38;;
8187;SDS011;4135;49.184;9.722;2022-07-29T15:42:37;4.00;;;2.78;;
8187;SDS011;4135;49.184;9.722;2022-07-29T15:45:07;4.93;;;3.17;;
8187;SDS011;4135;49.184;9.722;2022-07-29T15:47:37;13.68;;;3.45;;
8187;SDS011;4135;49.184;9.722;2022-07-29T15:50:06;5.25;;;2.58;;
8187;SDS011;4135;49.184;9.722;2022-07-29T15:52:41;4.47;;;3.17;;
8187;SDS011;4135;49.184;9.722;2022-07-29T15:55:11;5.22;;;2.92;;
8187;SDS011;4135;49.184;9.722;2022-07-29T15:57:41;5.57;;;3.63;;
8187;SDS011;4135;49.184;9.722;2022-07-29T16:00:10;5.43;;;3.05;;
8187;SDS011;4135;49.184;9.722;2022-07-29T16:02:41;4.25;;;3.10;;
8187;SDS011;4135;49.184;9.722;2022-07-29T16:05:11;4.47;;;2.60;;
8187;SDS011;4135;49.184;9.722;2022-07-29T16:07:40;3.03;;;2.75;;
8187;SDS011;4135;49.184;9.722;2022-07-29T16:10:10;4.93;;;2.97;;
8187;SDS011;4135;49.184;9.722;2022-07-29T16:12:39;3.72;;;2.47;;
8187;SDS011;4135;49.184;9.722;2022-07-29T16:15:09;4.93;;;2.88;;
8187;SDS011;4135;49.184;9.722;2022-07-29T16:17:38;3.03;;;2.65;;
8187;SDS011;4135;49.184;9.722;2022-07-29T16:20:08;4.35;;;2.72;;
8187;SDS011;4135;49.184;9.722;2022-07-29T16:22:38;4.47;;;2.80;;
8187;SDS011;4135;49.184;9.722;2022-07-29T16:25:07;4.57;;;2.70;;
8187;SDS011;4135;49.184;9.722;2022-07-29T16:27:37;2.83;;;2.20;;
8187;SDS011;4135;49.184;9.722;2022-07-29T16:30:07;3.50;;;2.70;;
8187;SDS011;4135;49.184;9.722;2022-07-29T16:32:37;4.35;;;3.35;;